Peterborough, New Hampshire
Current Conditions -  °F | °C
As of 7:52 PM on Saturday 25 Oct 2014 (Local Time) from KAFN Reporting Station
Broken Clouds Broken Clouds  
Wind Chill: 48°   Ceiling: 10000
Heat Index: 48°   Visibility: 10mi
Dew Point: 45°   Wind: 3mph
Humidity: 89%   Direction: 190°S
Pressure: 29.58"   Gusts: NA
Location:  42.87°N, 71.95°W
Report Text: KAFN 252352Z AUTO 19003KT 10SM BKN100 09/07 A2958 RMK AO2 SLP026 T00890072 10161 20089 58008
Loading
Personal Weather Stations






























Interactive Weather Map
Tropical Storm Tracking
New forecast layout! Learn more

10-Day Weather Forecast

Advertisements
Track Severe Weather on mobile